LJG weather

Lijiang Airport
Lijiang, Yunnan Province, China

Public forecast

Using degrees Celsius for public forecast. Weather courtesy of forecast.io.

Current aviation weather report (METAR) for Lijiang Airport

Report is more than 6 hours old.

Retrieved 2018/07/13 06:00 UTC (1 year ago):

ZPLJ 130600Z 26004MPS 9999 FEW040CB SCT040 SCT083 24/16 Q1015 NOSIG

Aviation forecast (TAF) for Lijiang Airport

Forecast is more than 12 hours old.

Retrieved 2016/08/08 12:21 UTC (3 years ago):

TAF ZPLJ 081024Z 081221 04003MPS 9999 BKN040 TX19/12Z TN15/21Z TEMPO 1216 -TSRA FEW040CB BKN040